Ana Sayfa
METAR-TAF:

METAR-TAF

Havaalanları :

Air Force Base Langebaanweg

Langebaan, Güney Afrika

Enlem: 32-58-08S, Boylam: 018-09-55E, yükseklik: 33 m

Güncel hava durumu gözlemi

Rapor saat 07:00 UTC de 28 dakika önce yapıldı.
Rüzgar kuzeydan 3 kt
Sıcaklık 14°C
Nem 77%
Basınç 1018 hPa

METAR: FALW 150700Z AUTO 01003KT //// // ////// 14/10 Q1018

Saat: 09:28 (07:28 UTC)


TAF: eksik

4.000'den fazla havaalanı için hava durumu gözlemleri ve tahminleri (METAR ve TAF raporları).

Kullanılabilir istasyonlar harita üzerinde sarı ve kırmızı noktalarla gösterilir.

İstasyonun adını görmek için fareyi noktanın üzerinde gezdirin.

Sonrasında hava gözlem ve tahminlerini görmek için tıklayın.

Haritayı değiştirmek için: yaklaştırmak için siyah artı işaretli yeşil düğmeye ve uzaklaştırmak için de eksi işaretli düğmeye hızla tıklayın; bitişik haritalar için yeşil okları kullanın.


METAR-TAF: